Time;durP1;ratioP1;P1;durP2;ratioP2;P2;SDS_P1;SDS_P2;PMS_P1;PMS_P2;Temp;Humidity;BMP_temperature;BMP_pressure;BME280_temperature;BME280_humidity;BME280_pressure;Samples;Min_cycle;Max_cycle;Signal;HPM_P1;HPM_P2
2022/12/05 00:00:28;;;;;;;30.23;15.98;;;;;;;;;;5112780;28;20061;-66
2022/12/05 00:02:54;;;;;;;27.23;14.70;;;;;;;;;;5112320;28;20040;-66
2022/12/05 00:05:20;;;;;;;26.48;14.43;;;;;;;;;;5092630;28;20558;-66
2022/12/05 00:07:46;;;;;;;30.17;15.20;;;;;;;;;;5092416;28;20040;-66
2022/12/05 00:10:12;;;;;;;23.88;13.73;;;;;;;;;;5108319;28;20494;-66
2022/12/05 00:12:38;;;;;;;26.00;14.10;;;;;;;;;;5112596;28;20097;-66
2022/12/05 00:15:05;;;;;;;27.90;14.77;;;;;;;;;;5112461;28;20371;-66
2022/12/05 00:17:31;;;;;;;28.80;15.13;;;;;;;;;;5111936;28;20086;-66
2022/12/05 00:19:57;;;;;;;29.45;15.60;;;;;;;;;;5112390;28;20044;-66
2022/12/05 00:22:23;;;;;;;30.88;16.20;;;;;;;;;;5112379;28;20216;-66
2022/12/05 00:24:49;;;;;;;27.77;15.38;;;;;;;;;;5111995;28;20123;-66
2022/12/05 00:27:15;;;;;;;31.17;15.32;;;;;;;;;;5112035;28;20047;-66
2022/12/05 00:29:41;;;;;;;30.08;16.45;;;;;;;;;;5112359;28;20084;-66
2022/12/05 00:32:07;;;;;;;32.72;16.90;;;;;;;;;;5111618;28;20062;-66
2022/12/05 00:34:33;;;;;;;30.30;16.38;;;;;;;;;;5112199;28;20039;-66
2022/12/05 00:36:59;;;;;;;34.22;16.95;;;;;;;;;;5112223;28;20046;-66
2022/12/05 00:39:25;;;;;;;30.88;16.25;;;;;;;;;;5111761;28;20191;-66
2022/12/05 00:41:51;;;;;;;29.50;16.58;;;;;;;;;;5112032;28;20047;-66
2022/12/05 00:44:17;;;;;;;33.58;17.10;;;;;;;;;;5112229;28;20231;-66
2022/12/05 00:46:43;;;;;;;30.33;15.80;;;;;;;;;;5110372;28;20557;-66
2022/12/05 00:49:10;;;;;;;35.35;17.45;;;;;;;;;;5111765;28;20035;-66
2022/12/05 00:51:38;;;;;;;34.97;17.48;;;;;;;;;;5111938;28;20096;-66
2022/12/05 00:54:06;;;;;;;31.60;16.77;;;;;;;;;;5111443;28;20131;-66
2022/12/05 00:56:32;;;;;;;31.70;17.02;;;;;;;;;;5112138;28;20494;-66
2022/12/05 00:58:58;;;;;;;33.45;16.80;;;;;;;;;;5111926;28;20375;-66
2022/12/05 01:01:32;;;;;;;34.13;17.48;;;;;;;;;;5110878;28;20051;-66
2022/12/05 01:03:59;;;;;;;34.85;18.10;;;;;;;;;;5102533;28;20039;-66
2022/12/05 01:06:25;;;;;;;36.28;17.70;;;;;;;;;;5091170;28;20044;-66
2022/12/05 01:08:52;;;;;;;32.00;16.80;;;;;;;;;;5095823;28;20114;-66
2022/12/05 01:11:19;;;;;;;37.30;18.35;;;;;;;;;;5111343;28;20044;-66
2022/12/05 01:13:45;;;;;;;35.88;19.40;;;;;;;;;;5111320;28;20085;-66
2022/12/05 01:16:15;;;;;;;35.40;18.52;;;;;;;;;;5109869;28;20481;-66
2022/12/05 01:18:41;;;;;;;37.80;19.00;;;;;;;;;;5110981;28;20493;-66
2022/12/05 01:21:07;;;;;;;33.67;17.50;;;;;;;;;;5111075;28;20043;-66
2022/12/05 01:23:33;;;;;;;33.75;18.48;;;;;;;;;;5110903;28;20050;-66
2022/12/05 01:25:59;;;;;;;34.28;18.48;;;;;;;;;;5111067;28;20398;-66
2022/12/05 01:28:25;;;;;;;35.38;18.55;;;;;;;;;;5111317;28;20058;-66
2022/12/05 01:30:51;;;;;;;35.05;17.88;;;;;;;;;;5110731;28;20065;-66
2022/12/05 01:33:17;;;;;;;32.47;16.77;;;;;;;;;;5110817;28;20044;-66
2022/12/05 01:35:43;;;;;;;39.35;19.52;;;;;;;;;;5110898;28;20035;-66
2022/12/05 01:38:11;;;;;;;38.15;19.35;;;;;;;;;;5110795;28;20056;-66
2022/12/05 01:40:37;;;;;;;37.88;20.17;;;;;;;;;;5110889;28;20028;-66
2022/12/05 01:43:03;;;;;;;35.67;19.17;;;;;;;;;;5110902;28;20032;-66
2022/12/05 01:45:34;;;;;;;38.03;18.10;;;;;;;;;;5110254;28;20509;-66
2022/12/05 01:48:02;;;;;;;38.90;19.88;;;;;;;;;;5110883;28;20040;-66
2022/12/05 01:50:28;;;;;;;40.65;19.75;;;;;;;;;;5110533;28;20039;-66
2022/12/05 01:52:54;;;;;;;37.70;19.00;;;;;;;;;;5110438;28;20423;-66
2022/12/05 01:55:20;;;;;;;36.65;18.73;;;;;;;;;;5110845;28;20040;-66
2022/12/05 01:57:47;;;;;;;42.10;19.92;;;;;;;;;;5110850;28;20398;-66
2022/12/05 02:00:15;;;;;;;43.20;20.02;;;;;;;;;;5110177;28;20358;-66
2022/12/05 02:02:43;;;;;;;40.03;19.17;;;;;;;;;;5110598;28;20164;-66
2022/12/05 02:05:21;;;;;;;42.67;20.42;;;;;;;;;;5091866;28;20437;-66
2022/12/05 02:07:47;;;;;;;41.28;18.95;;;;;;;;;;5089807;28;20044;-66
2022/12/05 02:10:13;;;;;;;48.47;20.65;;;;;;;;;;5106977;28;20055;-66
2022/12/05 02:12:40;;;;;;;43.67;21.25;;;;;;;;;;5110333;28;20119;-66
2022/12/05 02:15:25;;;;;;;47.72;22.85;;;;;;;;;;5111636;28;20032;-66
2022/12/05 02:17:57;;;;;;;45.38;22.77;;;;;;;;;;5114539;28;20249;-66
2022/12/05 02:20:46;;;;;;;50.47;23.08;;;;;;;;;;5114793;28;20086;-66
2022/12/05 02:23:47;;;;;;;52.63;23.98;;;;;;;;;;5114286;28;20039;-66
2022/12/05 02:26:13;;;;;;;50.03;23.67;;;;;;;;;;5031043;28;20038;-66
2022/12/05 02:28:59;;;;;;;50.15;24.30;;;;;;;;;;5081385;28;20051;-66
2022/12/05 02:31:41;;;;;;;52.17;25.38;;;;;;;;;;5062023;28;20048;-66
2022/12/05 02:34:16;;;;;;;53.95;24.80;;;;;;;;;;5093815;28;20036;-66
2022/12/05 02:37:08;;;;;;;56.10;23.90;;;;;;;;;;5093840;28;20036;-66
2022/12/05 02:39:34;;;;;;;48.85;23.92;;;;;;;;;;5070226;28;20451;-66
2022/12/05 02:42:03;;;;;;;51.75;23.30;;;;;;;;;;5093937;28;20131;-66
2022/12/05 02:44:39;;;;;;;49.40;24.20;;;;;;;;;;5093603;28;20122;-66
2022/12/05 02:47:06;;;;;;;49.72;24.02;;;;;;;;;;5093905;28;20048;-66
2022/12/05 02:49:33;;;;;;;50.88;23.45;;;;;;;;;;5093887;28;20074;-66
2022/12/05 02:52:02;;;;;;;53.78;24.10;;;;;;;;;;5093331;28;20391;-66
2022/12/05 02:54:31;;;;;;;52.78;23.70;;;;;;;;;;5093721;28;20259;-66
2022/12/05 02:56:58;;;;;;;51.65;23.63;;;;;;;;;;5093693;28;20092;-66
2022/12/05 02:59:24;;;;;;;51.30;24.52;;;;;;;;;;5091998;28;20147;-66
2022/12/05 03:01:50;;;;;;;50.95;23.77;;;;;;;;;;5093460;28;20222;-66
2022/12/05 03:04:17;;;;;;;54.42;24.73;;;;;;;;;;5104711;28;20036;-66
2022/12/05 03:06:53;;;;;;;49.85;23.85;;;;;;;;;;5113370;28;20637;-66
2022/12/05 03:09:21;;;;;;;48.58;22.75;;;;;;;;;;5113824;28;20506;-66
2022/12/05 03:11:49;;;;;;;50.25;23.35;;;;;;;;;;5113688;28;20083;-66
2022/12/05 03:14:20;;;;;;;50.67;22.67;;;;;;;;;;5113049;28;20043;-66
2022/12/05 03:16:54;;;;;;;48.88;22.52;;;;;;;;;;5113166;28;20051;-66
2022/12/05 03:19:23;;;;;;;51.25;23.10;;;;;;;;;;5113488;28;20126;-66
2022/12/05 03:21:53;;;;;;;55.30;24.38;;;;;;;;;;5113131;28;20476;-66
2022/12/05 03:24:19;;;;;;;52.08;23.90;;;;;;;;;;5113607;28;20039;-66
2022/12/05 03:27:04;;;;;;;52.22;23.67;;;;;;;;;;5112884;28;20071;-66
2022/12/05 03:29:48;;;;;;;50.45;22.75;;;;;;;;;;5113418;28;20050;-66
2022/12/05 03:32:14;;;;;;;46.08;21.55;;;;;;;;;;5113253;28;20497;-66
2022/12/05 03:34:40;;;;;;;49.28;22.75;;;;;;;;;;5113640;28;20039;-66
2022/12/05 03:37:09;;;;;;;47.22;22.23;;;;;;;;;;5112728;28;20028;-66
2022/12/05 03:39:38;;;;;;;49.83;22.98;;;;;;;;;;5113315;28;20043;-66
2022/12/05 03:42:15;;;;;;;44.55;20.83;;;;;;;;;;5112929;28;20050;-66
2022/12/05 03:44:41;;;;;;;39.08;19.90;;;;;;;;;;5113034;28;20443;-66
2022/12/05 03:47:12;;;;;;;39.92;20.15;;;;;;;;;;5113214;28;20040;-66
2022/12/05 03:49:41;;;;;;;39.35;20.05;;;;;;;;;;5113190;28;20521;-66
2022/12/05 03:52:09;;;;;;;37.53;20.08;;;;;;;;;;5112895;28;20371;-66
2022/12/05 03:54:45;;;;;;;37.60;18.95;;;;;;;;;;5113105;28;20080;-66
2022/12/05 03:57:14;;;;;;;33.72;16.92;;;;;;;;;;5113002;28;20478;-66
2022/12/05 03:59:45;;;;;;;38.30;18.90;;;;;;;;;;5111525;28;20101;-66
2022/12/05 04:02:19;;;;;;;38.75;19.42;;;;;;;;;;5112798;28;20084;-66
2022/12/05 04:04:48;;;;;;;32.67;17.23;;;;;;;;;;5097719;28;20399;-66
2022/12/05 04:07:16;;;;;;;31.92;17.23;;;;;;;;;;5092076;28;20398;-66
2022/12/05 04:10:02;;;;;;;28.75;16.05;;;;;;;;;;5104594;28;20039;-66
2022/12/05 04:12:30;;;;;;;31.60;17.17;;;;;;;;;;5112223;28;20044;-66
2022/12/05 04:14:58;;;;;;;31.55;17.08;;;;;;;;;;5112213;28;20028;-66
2022/12/05 04:17:34;;;;;;;29.65;16.48;;;;;;;;;;5112204;28;20047;-66
2022/12/05 04:22:48;;;;;;;24.92;14.25;;;;;;;;;;5112006;28;20081;-66
2022/12/05 04:25:33;;;;;;;25.08;14.57;;;;;;;;;;5112344;28;20127;-66
2022/12/05 04:27:59;;;;;;;23.45;12.55;;;;;;;;;;5112242;28;20047;-66
2022/12/05 04:30:28;;;;;;;24.17;13.23;;;;;;;;;;5112127;28;20493;-66
2022/12/05 04:33:06;;;;;;;21.65;13.43;;;;;;;;;;5112002;28;20099;-66
2022/12/05 04:35:39;;;;;;;22.00;12.70;;;;;;;;;;5111918;28;20035;-66
2022/12/05 04:38:08;;;;;;;21.85;12.77;;;;;;;;;;5111211;28;20222;-66
2022/12/05 04:40:40;;;;;;;25.83;13.65;;;;;;;;;;5112101;28;20047;-66
2022/12/05 04:43:07;;;;;;;21.55;12.65;;;;;;;;;;5111690;28;20071;-66
2022/12/05 04:45:35;;;;;;;21.83;12.85;;;;;;;;;;5111753;28;20039;-66
2022/12/05 04:48:02;;;;;;;19.55;12.52;;;;;;;;;;5111942;28;20545;-66
2022/12/05 04:50:31;;;;;;;23.42;13.27;;;;;;;;;;5111056;28;20046;-66
2022/12/05 04:52:59;;;;;;;21.25;12.90;;;;;;;;;;5111668;28;20039;-66
2022/12/05 04:55:25;;;;;;;21.45;12.50;;;;;;;;;;5111838;28;20047;-66
2022/12/05 04:58:02;;;;;;;19.98;12.45;;;;;;;;;;5111223;28;20482;-66
2022/12/05 05:00:29;;;;;;;20.55;12.48;;;;;;;;;;5111583;28;20035;-66
2022/12/05 05:03:11;;;;;;;18.55;11.57;;;;;;;;;;5111513;28;20050;-66
2022/12/05 05:05:38;;;;;;;19.02;11.75;;;;;;;;;;5090808;28;20047;-66
2022/12/05 05:08:04;;;;;;;17.30;10.55;;;;;;;;;;5091225;28;20071;-66
2022/12/05 05:10:39;;;;;;;13.68;9.48;;;;;;;;;;5110325;28;20040;-66
2022/12/05 05:13:05;;;;;;;14.07;8.88;;;;;;;;;;5110809;28;20248;-66
2022/12/05 05:15:31;;;;;;;14.27;8.07;;;;;;;;;;5111503;28;20084;-66
2022/12/05 05:17:57;;;;;;;12.35;7.75;;;;;;;;;;5111067;28;20084;-66
2022/12/05 05:20:23;;;;;;;12.45;7.35;;;;;;;;;;5109369;28;20495;-66
2022/12/05 05:22:49;;;;;;;10.45;7.22;;;;;;;;;;5110985;28;20378;-66
2022/12/05 05:25:15;;;;;;;8.45;6.47;;;;;;;;;;5111217;28;20482;-66
2022/12/05 05:27:41;;;;;;;8.13;6.20;;;;;;;;;;5110916;28;20490;-66
2022/12/05 05:30:08;;;;;;;9.23;6.40;;;;;;;;;;5111425;28;20466;-66
2022/12/05 05:32:34;;;;;;;9.23;6.35;;;;;;;;;;5110718;28;20040;-66
2022/12/05 05:35:00;;;;;;;8.80;5.85;;;;;;;;;;5110726;28;20042;-66
2022/12/05 05:37:26;;;;;;;9.10;6.00;;;;;;;;;;5111118;28;20110;-66
2022/12/05 05:39:52;;;;;;;9.45;6.00;;;;;;;;;;5111607;28;20477;-66
2022/12/05 05:42:18;;;;;;;9.48;6.75;;;;;;;;;;5111587;28;20036;-66
2022/12/05 05:44:44;;;;;;;10.02;6.55;;;;;;;;;;5112216;28;20046;-66
2022/12/05 05:47:10;;;;;;;9.93;7.05;;;;;;;;;;5112059;28;20036;-66
2022/12/05 05:49:36;;;;;;;11.75;7.93;;;;;;;;;;5111679;28;20474;-66
2022/12/05 05:52:03;;;;;;;12.07;7.38;;;;;;;;;;5112075;28;20097;-66
2022/12/05 05:54:29;;;;;;;9.00;6.10;;;;;;;;;;5111780;28;20431;-66
2022/12/05 05:56:55;;;;;;;8.93;6.55;;;;;;;;;;5110595;28;20071;-66
2022/12/05 05:59:21;;;;;;;8.30;6.20;;;;;;;;;;5111796;28;20089;-66
2022/12/05 06:01:47;;;;;;;9.52;6.78;;;;;;;;;;5112122;28;20040;-66
2022/12/05 06:04:13;;;;;;;10.93;6.90;;;;;;;;;;5101017;28;20036;-66
2022/12/05 06:06:40;;;;;;;11.27;6.97;;;;;;;;;;5091337;28;20055;-66
2022/12/05 06:09:09;;;;;;;8.68;6.60;;;;;;;;;;5098979;28;20114;-66
2022/12/05 06:11:35;;;;;;;9.48;6.85;;;;;;;;;;5097748;28;20580;-66
2022/12/05 06:14:01;;;;;;;10.13;7.18;;;;;;;;;;5098555;28;20111;-66
2022/12/05 06:16:27;;;;;;;9.15;6.65;;;;;;;;;;5111773;28;20048;-66
2022/12/05 06:18:53;;;;;;;9.68;6.72;;;;;;;;;;5110847;28;20048;-66
2022/12/05 06:21:19;;;;;;;9.45;6.80;;;;;;;;;;5109418;28;20093;-66
2022/12/05 06:23:45;;;;;;;8.68;6.25;;;;;;;;;;5110182;28;20123;-66
2022/12/05 06:26:12;;;;;;;9.13;6.45;;;;;;;;;;5109897;28;20480;-66
2022/12/05 06:28:38;;;;;;;9.38;6.63;;;;;;;;;;5110174;28;20542;-66
2022/12/05 06:31:12;;;;;;;7.95;6.38;;;;;;;;;;5109678;28;20043;-66
2022/12/05 06:33:39;;;;;;;9.73;6.38;;;;;;;;;;5109695;28;20111;-66
2022/12/05 06:36:06;;;;;;;9.48;6.13;;;;;;;;;;5110009;28;20089;-66
2022/12/05 06:38:32;;;;;;;7.72;5.53;;;;;;;;;;5109935;28;20036;-66
2022/12/05 06:40:58;;;;;;;8.82;5.80;;;;;;;;;;5110003;28;20046;-66
2022/12/05 06:43:24;;;;;;;7.53;5.50;;;;;;;;;;5109347;28;20047;-67
2022/12/05 06:45:50;;;;;;;7.43;5.60;;;;;;;;;;5100511;28;20327;-66
2022/12/05 06:48:16;;;;;;;7.32;5.18;;;;;;;;;;5109704;28;20807;-66
2022/12/05 06:50:52;;;;;;;7.37;5.00;;;;;;;;;;5110103;28;20122;-66
2022/12/05 06:53:19;;;;;;;7.70;4.95;;;;;;;;;;5109461;28;20074;-66
2022/12/05 06:55:54;;;;;;;8.07;5.15;;;;;;;;;;5110891;28;20355;-65
2022/12/05 06:58:20;;;;;;;6.95;4.78;;;;;;;;;;5110661;28;20042;-65
2022/12/05 07:03:31;;;;;;;7.85;5.68;;;;;;;;;;5113322;28;20043;-65
2022/12/05 07:06:00;;;;;;;9.00;5.43;;;;;;;;;;5101574;28;20059;-64
2022/12/05 07:08:26;;;;;;;7.72;5.65;;;;;;;;;;5103500;28;20038;-64
2022/12/05 07:10:52;;;;;;;9.13;5.78;;;;;;;;;;5103264;28;20078;-64
2022/12/05 07:13:18;;;;;;;9.88;5.95;;;;;;;;;;5099221;28;20071;-63
2022/12/05 07:15:47;;;;;;;7.90;5.35;;;;;;;;;;5114244;28;20061;-64
2022/12/05 07:18:14;;;;;;;6.30;4.90;;;;;;;;;;5112535;28;20095;-63
2022/12/05 07:20:41;;;;;;;7.32;5.40;;;;;;;;;;5114184;28;20406;-64
2022/12/05 07:23:07;;;;;;;10.07;5.78;;;;;;;;;;5113625;28;20070;-64
2022/12/05 07:25:33;;;;;;;8.55;5.28;;;;;;;;;;5112455;28;20047;-65
2022/12/05 07:27:59;;;;;;;7.20;5.57;;;;;;;;;;5114452;28;20040;-64
2022/12/05 07:30:25;;;;;;;7.63;5.82;;;;;;;;;;5113587;28;20044;-64
2022/12/05 07:32:51;;;;;;;10.18;6.05;;;;;;;;;;5092760;28;20051;-64
2022/12/05 07:35:17;;;;;;;8.07;6.00;;;;;;;;;;5105503;28;20084;-65
2022/12/05 07:37:43;;;;;;;9.70;5.93;;;;;;;;;;5106501;28;20119;-65
2022/12/05 07:40:09;;;;;;;8.20;5.90;;;;;;;;;;5095589;28;20122;-64
2022/12/05 07:42:36;;;;;;;9.45;6.18;;;;;;;;;;5105006;28;20093;-64
2022/12/05 07:45:02;;;;;;;9.00;6.85;;;;;;;;;;5101022;28;20043;-65
2022/12/05 07:47:29;;;;;;;10.15;6.78;;;;;;;;;;5111815;28;20047;-67
2022/12/05 07:49:56;;;;;;;9.65;6.57;;;;;;;;;;5109438;27;20150;-67
2022/12/05 07:52:22;;;;;;;9.65;6.95;;;;;;;;;;5105514;28;20044;-67
2022/12/05 07:54:48;;;;;;;13.32;7.15;;;;;;;;;;5102623;28;20447;-68
2022/12/05 07:57:14;;;;;;;11.25;6.90;;;;;;;;;;5098951;28;20040;-67
2022/12/05 07:59:40;;;;;;;12.95;6.75;;;;;;;;;;5106713;28;20031;-67
2022/12/05 08:02:06;;;;;;;11.68;6.93;;;;;;;;;;5111777;28;20107;-67
2022/12/05 08:04:32;;;;;;;14.35;6.72;;;;;;;;;;5097957;28;20429;-66
2022/12/05 08:06:59;;;;;;;12.75;7.28;;;;;;;;;;5109734;27;20043;-66
2022/12/05 08:09:26;;;;;;;15.13;7.28;;;;;;;;;;5106354;28;20553;-66
2022/12/05 08:11:52;;;;;;;11.93;7.22;;;;;;;;;;5097083;28;20502;-65
2022/12/05 08:14:18;;;;;;;13.68;7.47;;;;;;;;;;5106614;28;20032;-65
2022/12/05 08:16:44;;;;;;;14.40;7.53;;;;;;;;;;5100379;28;20036;-64
2022/12/05 08:19:15;;;;;;;11.73;7.10;;;;;;;;;;5104537;28;20490;-66
2022/12/05 08:21:42;;;;;;;17.15;7.90;;;;;;;;;;5098906;28;21833;-64
2022/12/05 08:24:08;;;;;;;13.23;7.47;;;;;;;;;;5097125;28;20058;-64
2022/12/05 08:26:34;;;;;;;14.65;7.95;;;;;;;;;;5107124;28;20641;-65
2022/12/05 08:29:02;;;;;;;13.70;7.20;;;;;;;;;;5098662;28;20209;-65
2022/12/05 08:31:29;;;;;;;15.38;8.38;;;;;;;;;;5110241;28;20908;-65
2022/12/05 08:33:59;;;;;;;13.15;7.47;;;;;;;;;;5111158;28;20484;-65
2022/12/05 08:36:26;;;;;;;13.93;8.05;;;;;;;;;;5111259;28;20113;-64
2022/12/05 08:38:55;;;;;;;15.38;8.85;;;;;;;;;;5103842;28;20035;-65
2022/12/05 08:41:21;;;;;;;14.95;7.05;;;;;;;;;;5101392;28;20036;-65
2022/12/05 08:43:47;;;;;;;16.27;8.60;;;;;;;;;;5104407;28;20044;-65
2022/12/05 08:46:13;;;;;;;14.85;7.78;;;;;;;;;;5107473;28;20044;-64
2022/12/05 08:48:41;;;;;;;12.18;7.40;;;;;;;;;;5102846;28;20169;-65
2022/12/05 08:51:08;;;;;;;15.93;8.68;;;;;;;;;;5107248;28;20043;-65
2022/12/05 08:53:39;;;;;;;17.40;8.15;;;;;;;;;;5110418;28;20040;-66
2022/12/05 08:56:06;;;;;;;13.32;7.40;;;;;;;;;;5104636;28;20032;-66
2022/12/05 08:58:32;;;;;;;16.70;7.57;;;;;;;;;;5107857;28;20600;-65
2022/12/05 09:01:07;;;;;;;13.30;7.60;;;;;;;;;;5107410;28;20043;-65
2022/12/05 09:03:34;;;;;;;12.57;7.50;;;;;;;;;;5100490;28;20044;-65
2022/12/05 09:06:06;;;;;;;13.45;7.50;;;;;;;;;;5103239;27;20046;-65
2022/12/05 09:08:32;;;;;;;;;;;;;;;;;;5099506;28;20039;-65
2022/12/05 09:10:59;;;;;;;13.88;6.63;;;;;;;;;;5103563;28;20277;-65
2022/12/05 09:13:25;;;;;;;14.05;7.25;;;;;;;;;;5100410;28;20043;-64
2022/12/05 09:15:51;;;;;;;14.65;7.03;;;;;;;;;;5104183;28;20503;-65
2022/12/05 09:18:17;;;;;;;12.95;7.57;;;;;;;;;;5098824;28;20078;-65
2022/12/05 09:20:43;;;;;;;12.40;7.15;;;;;;;;;;5100786;28;20116;-65
2022/12/05 09:23:09;;;;;;;12.63;7.43;;;;;;;;;;5100652;28;20043;-65
2022/12/05 09:25:35;;;;;;;13.93;7.50;;;;;;;;;;5090972;28;20135;-65
2022/12/05 09:28:01;;;;;;;12.70;7.15;;;;;;;;;;5104596;28;20067;-65
2022/12/05 09:30:27;;;;;;;14.35;7.90;;;;;;;;;;5101331;28;20075;-65
2022/12/05 09:32:53;;;;;;;11.65;6.65;;;;;;;;;;5105091;28;20125;-64
2022/12/05 09:35:19;;;;;;;12.95;7.15;;;;;;;;;;5100189;28;20028;-63
2022/12/05 09:37:45;;;;;;;12.15;7.03;;;;;;;;;;5103261;28;20043;-64
2022/12/05 09:40:18;;;;;;;13.25;7.50;;;;;;;;;;5101145;28;20036;-64
2022/12/05 09:43:04;;;;;;;12.88;7.28;;;;;;;;;;5104867;28;20054;-65
2022/12/05 09:45:36;;;;;;;11.18;6.78;;;;;;;;;;5103690;28;20058;-65
2022/12/05 09:48:10;;;;;;;13.70;7.65;;;;;;;;;;5110821;28;20068;-66
2022/12/05 09:50:51;;;;;;;12.98;6.38;;;;;;;;;;5110801;28;20120;-67
2022/12/05 09:53:32;;;;;;;11.77;6.97;;;;;;;;;;5095997;28;20048;-66
2022/12/05 09:56:06;;;;;;;12.57;6.90;;;;;;;;;;5098818;28;20046;-67
2022/12/05 09:58:32;;;;;;;13.82;6.93;;;;;;;;;;5104925;28;20073;-66
2022/12/05 10:01:20;;;;;;;13.32;6.85;;;;;;;;;;5111324;28;20146;-66
2022/12/05 10:03:50;;;;;;;14.65;7.22;;;;;;;;;;5100634;28;20119;-64
2022/12/05 10:06:20;;;;;;;12.82;7.28;;;;;;;;;;5091492;28;20051;-65
2022/12/05 10:09:01;;;;;;;11.27;6.75;;;;;;;;;;5101562;28;20063;-64
2022/12/05 10:11:34;;;;;;;16.60;7.72;;;;;;;;;;5105988;28;20039;-64
2022/12/05 10:14:00;;;;;;;13.20;7.07;;;;;;;;;;5109450;28;20374;-64
2022/12/05 10:16:31;;;;;;;13.82;7.50;;;;;;;;;;5109048;28;20043;-64
2022/12/05 10:19:04;;;;;;;14.07;7.38;;;;;;;;;;5105947;28;20090;-64
2022/12/05 10:21:32;;;;;;;14.77;7.53;;;;;;;;;;5109219;28;20078;-66
2022/12/05 10:24:06;;;;;;;15.63;7.63;;;;;;;;;;5109431;28;20802;-64
2022/12/05 10:26:43;;;;;;;14.10;7.32;;;;;;;;;;5106493;28;20083;-66
2022/12/05 10:29:25;;;;;;;14.25;6.68;;;;;;;;;;5102748;28;20054;-66
2022/12/05 10:31:54;;;;;;;10.57;6.73;;;;;;;;;;5101998;28;20047;-67
2022/12/05 10:34:31;;;;;;;12.25;6.95;;;;;;;;;;5103832;28;20372;-66
2022/12/05 10:37:20;;;;;;;10.07;6.30;;;;;;;;;;5096749;28;20493;-67
2022/12/05 10:39:47;;;;;;;11.50;6.22;;;;;;;;;;5089167;28;20139;-67
2022/12/05 10:42:16;;;;;;;11.25;6.60;;;;;;;;;;5107193;28;20040;-65
2022/12/05 10:44:42;;;;;;;10.95;6.32;;;;;;;;;;5103353;28;20044;-65
2022/12/05 10:47:08;;;;;;;9.32;6.53;;;;;;;;;;5113381;28;20103;-68
2022/12/05 10:49:35;;;;;;;11.27;6.25;;;;;;;;;;5095938;28;20089;-67
2022/12/05 10:52:01;;;;;;;10.85;6.47;;;;;;;;;;5114002;28;20044;-66
2022/12/05 10:54:34;;;;;;;10.23;6.18;;;;;;;;;;5108532;28;20047;-66
2022/12/05 10:57:00;;;;;;;11.13;6.45;;;;;;;;;;5104716;28;20032;-66
2022/12/05 10:59:44;;;;;;;12.73;6.85;;;;;;;;;;5107725;28;20381;-66
2022/12/05 11:02:18;;;;;;;11.60;6.55;;;;;;;;;;5108374;28;20047;-65
2022/12/05 11:04:44;;;;;;;11.20;6.13;;;;;;;;;;5106101;28;20050;-65
2022/12/05 11:07:23;;;;;;;11.80;6.78;;;;;;;;;;5105739;28;20172;-67
2022/12/05 11:09:50;;;;;;;14.00;7.75;;;;;;;;;;5101414;28;20038;-64
2022/12/05 11:12:24;;;;;;;12.60;6.53;;;;;;;;;;5108052;28;20044;-64
2022/12/05 11:14:59;;;;;;;11.43;6.93;;;;;;;;;;5107223;28;20935;-65
2022/12/05 11:17:29;;;;;;;15.90;6.75;;;;;;;;;;5109495;28;20051;-64
2022/12/05 11:19:56;;;;;;;12.48;7.60;;;;;;;;;;5107104;28;20054;-65
2022/12/05 11:22:30;;;;;;;17.65;9.07;;;;;;;;;;5102514;28;20130;-66
2022/12/05 11:24:56;;;;;;;11.02;6.65;;;;;;;;;;5106737;28;20131;-64
2022/12/05 11:27:32;;;;;;;12.30;6.97;;;;;;;;;;5103280;28;20093;-65
2022/12/05 11:30:26;;;;;;;14.00;7.18;;;;;;;;;;5097017;28;20142;-66
2022/12/05 11:33:10;;;;;;;10.55;7.28;;;;;;;;;;5098235;28;20067;-68
2022/12/05 11:35:37;;;;;;;12.05;7.35;;;;;;;;;;5103828;28;20039;-68
2022/12/05 11:38:04;;;;;;;9.82;6.82;;;;;;;;;;5103051;28;20040;-69
2022/12/05 11:40:43;;;;;;;12.93;6.75;;;;;;;;;;5112239;28;20036;-69
2022/12/05 11:43:18;;;;;;;9.63;5.65;;;;;;;;;;5112191;28;20130;-69
2022/12/05 11:46:03;;;;;;;13.02;6.43;;;;;;;;;;5110727;28;20069;-69
2022/12/05 11:48:35;;;;;;;12.20;6.85;;;;;;;;;;5112123;28;20492;-68
2022/12/05 11:51:01;;;;;;;11.15;6.07;;;;;;;;;;5112607;28;20063;-68
2022/12/05 11:53:36;;;;;;;12.73;6.55;;;;;;;;;;5106571;28;20644;-68
2022/12/05 11:56:14;;;;;;;14.98;7.32;;;;;;;;;;5112234;28;20035;-68
2022/12/05 11:58:52;;;;;;;10.50;6.15;;;;;;;;;;5112227;28;20047;-68
2022/12/05 12:01:26;;;;;;;7.68;5.20;;;;;;;;;;5112035;28;20595;-68
2022/12/05 12:04:11;;;;;;;10.77;6.40;;;;;;;;;;5109493;28;20463;-69
2022/12/05 12:06:50;;;;;;;8.55;5.07;;;;;;;;;;5111348;28;20090;-69
2022/12/05 12:09:42;;;;;;;11.98;6.47;;;;;;;;;;5102336;28;20081;-69
2022/12/05 12:12:27;;;;;;;8.65;5.38;;;;;;;;;;5111644;28;20043;-67
2022/12/05 12:15:02;;;;;;;8.77;5.03;;;;;;;;;;5105525;28;20040;-67
2022/12/05 12:17:51;;;;;;;8.07;5.32;;;;;;;;;;5100025;28;20087;-67
2022/12/05 12:20:17;;;;;;;9.23;4.68;;;;;;;;;;5103925;28;20079;-67
2022/12/05 12:22:55;;;;;;;9.23;4.78;;;;;;;;;;5102438;28;20094;-67
2022/12/05 12:25:50;;;;;;;9.68;5.07;;;;;;;;;;5104975;28;20035;-66
2022/12/05 12:28:22;;;;;;;7.72;4.90;;;;;;;;;;5092854;28;20375;-66
2022/12/05 12:31:00;;;;;;;7.95;5.07;;;;;;;;;;5101004;28;20067;-66
2022/12/05 12:33:30;;;;;;;6.80;4.60;;;;;;;;;;5098666;28;20119;-67
2022/12/05 12:36:01;;;;;;;9.15;5.07;;;;;;;;;;5109636;28;20780;-67
2022/12/05 12:38:40;;;;;;;7.68;4.63;;;;;;;;;;5111187;28;20039;-68
2022/12/05 12:41:35;;;;;;;7.97;4.82;;;;;;;;;;5101091;28;20416;-67
2022/12/05 12:44:20;;;;;;;9.10;5.22;;;;;;;;;;5078543;28;20055;-68
2022/12/05 12:46:52;;;;;;;6.13;4.68;;;;;;;;;;5084325;28;20027;-66
2022/12/05 12:49:21;;;;;;;8.25;5.13;;;;;;;;;;5100332;28;20047;-66
2022/12/05 12:51:51;;;;;;;8.32;4.40;;;;;;;;;;5105199;28;20047;-67
2022/12/05 12:54:39;;;;;;;8.98;4.70;;;;;;;;;;5102052;28;20048;-67
2022/12/05 12:57:05;;;;;;;7.38;4.28;;;;;;;;;;5106153;28;20039;-68
2022/12/05 12:59:40;;;;;;;7.03;4.47;;;;;;;;;;5102221;28;20126;-67
2022/12/05 13:02:15;;;;;;;7.90;4.47;;;;;;;;;;5100281;28;20032;-68
2022/12/05 13:04:47;;;;;;;8.80;4.72;;;;;;;;;;5097870;28;20183;-67
2022/12/05 13:07:17;;;;;;;10.52;5.05;;;;;;;;;;5098810;28;20457;-67
2022/12/05 13:09:49;;;;;;;7.38;3.90;;;;;;;;;;5111052;28;20058;-67
2022/12/05 13:12:22;;;;;;;7.93;4.97;;;;;;;;;;5103046;28;20375;-67
2022/12/05 13:14:48;;;;;;;;;;;;;;;;;;5104948;28;20076;-66
2022/12/05 13:17:16;;;;;;;7.07;3.85;;;;;;;;;;5106583;28;19919;-65
2022/12/05 13:19:45;;;;;;;8.23;4.53;;;;;;;;;;5108985;28;20130;-65
2022/12/05 13:22:11;;;;;;;8.02;4.10;;;;;;;;;;5112047;28;20078;-67
2022/12/05 13:24:38;;;;;;;9.40;4.55;;;;;;;;;;5098872;28;20051;-67
2022/12/05 13:27:05;;;;;;;7.10;3.95;;;;;;;;;;5104981;28;20048;-66
2022/12/05 13:29:33;;;;;;;8.20;3.97;;;;;;;;;;5105081;28;20047;-66
2022/12/05 13:32:02;;;;;;;7.75;4.95;;;;;;;;;;5109049;28;20039;-66
2022/12/05 13:34:33;;;;;;;8.00;4.30;;;;;;;;;;5103038;28;20051;-67
2022/12/05 13:42:38;;;;;;;7.47;4.30;;;;;;;;;;5100633;28;20039;-66
2022/12/05 13:45:04;;;;;;;7.55;3.72;;;;;;;;;;5101084;28;20115;-67
2022/12/05 13:47:36;;;;;;;8.10;4.30;;;;;;;;;;5094973;28;20078;-67
2022/12/05 13:50:08;;;;;;;6.22;4.03;;;;;;;;;;5091120;28;20122;-68
2022/12/05 13:53:00;;;;;;;5.70;3.90;;;;;;;;;;5098775;28;20092;-67
2022/12/05 13:55:33;;;;;;;5.47;3.80;;;;;;;;;;5080578;28;20039;-66
2022/12/05 13:58:23;;;;;;;6.18;3.58;;;;;;;;;;5098107;28;20718;-66
2022/12/05 14:00:49;;;;;;;5.93;3.55;;;;;;;;;;5092802;28;20048;-67
2022/12/05 14:03:21;;;;;;;5.80;3.67;;;;;;;;;;5097307;28;20442;-66
2022/12/05 14:05:49;;;;;;;5.85;3.63;;;;;;;;;;5098255;28;20162;-66
2022/12/05 14:08:38;;;;;;;7.50;4.10;;;;;;;;;;5102624;28;20046;-66
2022/12/05 14:11:04;;;;;;;6.53;4.00;;;;;;;;;;5100777;28;20043;-67
2022/12/05 14:13:32;;;;;;;7.70;4.40;;;;;;;;;;5099123;28;20028;-66
2022/12/05 14:16:17;;;;;;;5.82;3.80;;;;;;;;;;5103120;28;20044;-66
2022/12/05 14:18:46;;;;;;;7.10;4.30;;;;;;;;;;5100155;28;20043;-65
2022/12/05 14:21:17;;;;;;;9.18;4.55;;;;;;;;;;5099741;28;20140;-64
2022/12/05 14:23:56;;;;;;;5.82;3.75;;;;;;;;;;5099935;28;20043;-64
2022/12/05 14:26:31;;;;;;;6.63;4.15;;;;;;;;;;5098399;28;20051;-65
2022/12/05 14:29:05;;;;;;;7.38;4.30;;;;;;;;;;5108379;28;20036;-66
2022/12/05 14:31:51;;;;;;;7.07;4.22;;;;;;;;;;5107875;28;20055;-66
2022/12/05 14:34:23;;;;;;;8.10;4.55;;;;;;;;;;5063625;28;20089;-65
2022/12/05 14:37:28;;;;;;;6.50;4.28;;;;;;;;;;5101438;28;20044;-67
2022/12/05 14:39:56;;;;;;;9.80;4.80;;;;;;;;;;5012481;28;20053;-67
2022/12/05 14:42:42;;;;;;;6.80;4.53;;;;;;;;;;5027249;28;20618;-67
2022/12/05 14:45:28;;;;;;;9.52;5.32;;;;;;;;;;5037750;28;20121;-67
2022/12/05 14:47:59;;;;;;;12.02;5.55;;;;;;;;;;5089949;28;20047;-67
2022/12/05 14:50:37;;;;;;;9.30;4.38;;;;;;;;;;5097377;28;20044;-66
2022/12/05 14:53:29;;;;;;;9.00;4.70;;;;;;;;;;5101960;28;20043;-67
2022/12/05 14:56:01;;;;;;;10.70;4.93;;;;;;;;;;5100842;28;20115;-68
2022/12/05 14:58:32;;;;;;;10.93;4.97;;;;;;;;;;5104306;28;20516;-66
2022/12/05 15:01:00;;;;;;;9.00;4.80;;;;;;;;;;5100161;28;20031;-66